Time;durP1;ratioP1;P1;durP2;ratioP2;P2;SDS_P1;SDS_P2;PMS_P1;PMS_P2;Temp;Humidity;BMP_temperature;BMP_pressure;BME280_temperature;BME280_humidity;BME280_pressure;Samples;Min_cycle;Max_cycle;Signal;HPM_P1;HPM_P2
2022/07/29 00:00:07;;;;;;;7.77;2.20;;;16.50;35.00;;;;;;5018369;28;20451;-84
2022/07/29 00:02:34;;;;;;;7.30;2.93;;;16.50;35.20;;;;;;5018629;28;21071;-84
2022/07/29 00:05:01;;;;;;;5.17;2.00;;;16.50;34.30;;;;;;5018015;28;20954;-84
2022/07/29 00:07:29;;;;;;;7.93;2.00;;;16.50;34.60;;;;;;5018194;28;20457;-84
2022/07/29 00:09:55;;;;;;;5.37;2.30;;;16.60;33.70;;;;;;5018285;28;20465;-83
2022/07/29 00:12:24;;;;;;;6.77;2.43;;;16.70;33.60;;;;;;5018848;28;20494;-84
2022/07/29 00:14:51;;;;;;;7.60;2.30;;;16.60;33.00;;;;;;5018528;28;20451;-85
2022/07/29 00:17:18;;;;;;;13.20;1.90;;;16.70;33.20;;;;;;5018362;28;20455;-83
2022/07/29 00:19:45;;;;;;;5.43;1.97;;;16.80;32.10;;;;;;5018025;28;20456;-86
2022/07/29 00:22:12;;;;;;;6.90;2.30;;;16.90;31.00;;;;;;5018876;28;20473;-84
2022/07/29 00:24:40;;;;;;;7.00;2.90;;;16.90;30.40;;;;;;5018241;28;20456;-84
2022/07/29 00:27:06;;;;;;;8.87;2.23;;;17.00;30.80;;;;;;5018230;28;20481;-84
2022/07/29 00:29:33;;;;;;;6.07;2.00;;;16.90;31.00;;;;;;5019025;28;20622;-84
2022/07/29 00:32:00;;;;;;;6.90;2.43;;;16.90;30.50;;;;;;5018129;28;20479;-84
2022/07/29 00:37:11;;;;;;;6.60;2.10;;;17.00;30.60;;;;;;5022075;28;20501;-84
2022/07/29 00:39:37;;;;;;;5.80;1.80;;;17.00;31.20;;;;;;5022457;28;20459;-84
2022/07/29 00:42:06;;;;;;;5.60;2.00;;;17.00;31.20;;;;;;5022118;28;20471;-87
2022/07/29 00:44:38;;;;;;;5.47;2.17;;;17.00;28.30;;;;;;5021669;28;20535;-84
2022/07/29 00:47:05;;;;;;;6.13;2.30;;;17.20;28.20;;;;;;5022345;28;20459;-87
2022/07/29 00:49:31;;;;;;;5.60;2.00;;;17.10;28.00;;;;;;5022027;28;20481;-83
2022/07/29 00:51:58;;;;;;;7.10;1.83;;;17.20;29.20;;;;;;5022071;28;20479;-83
2022/07/29 00:54:26;;;;;;;8.30;2.20;;;17.20;28.40;;;;;;5021011;28;20514;-84
2022/07/29 00:56:54;;;;;;;8.30;2.00;;;17.20;28.20;;;;;;5021930;28;20546;-85
2022/07/29 00:59:22;;;;;;;6.23;2.27;;;17.20;28.50;;;;;;5021811;28;20449;-83
2022/07/29 01:01:48;;;;;;;8.33;2.17;;;17.20;28.50;;;;;;5021688;28;20459;-83
2022/07/29 01:04:15;;;;;;;8.87;1.97;;;17.20;29.40;;;;;;5020957;28;20463;-84
2022/07/29 01:06:43;;;;;;;5.80;2.03;;;17.20;29.30;;;;;;5021854;28;20459;-84
2022/07/29 01:09:11;;;;;;;6.07;2.13;;;17.10;28.60;;;;;;5021388;28;20466;-84
2022/07/29 01:11:39;;;;;;;5.50;1.87;;;17.10;29.10;;;;;;5021529;28;21019;-85
2022/07/29 01:14:07;;;;;;;9.30;3.00;;;17.10;30.40;;;;;;5021504;28;20472;-86
2022/07/29 01:16:41;;;;;;;5.17;1.63;;;17.10;29.50;;;;;;5021132;28;20468;-86
2022/07/29 01:19:20;;;;;;;5.60;1.53;;;17.00;28.90;;;;;;5021523;28;20570;-84
2022/07/29 01:21:54;;;;;;;6.70;1.57;;;17.00;28.40;;;;;;5021480;28;20459;-83
2022/07/29 01:24:44;;;;;;;6.50;2.40;;;17.10;28.70;;;;;;5021327;28;20806;-84
2022/07/29 01:27:27;;;;;;;8.10;2.07;;;17.00;28.10;;;;;;4993659;28;20456;-86
2022/07/29 01:29:58;;;;;;;6.47;1.87;;;17.00;29.80;;;;;;5021973;28;20456;-86
2022/07/29 01:32:28;;;;;;;6.70;2.00;;;17.10;29.10;;;;;;5021350;28;20868;-85
2022/07/29 01:34:59;;;;;;;6.23;2.13;;;17.10;29.30;;;;;;5021018;28;20466;-88
2022/07/29 01:37:30;;;;;;;8.80;2.67;;;17.00;30.80;;;;;;5021396;28;20465;-84
2022/07/29 01:39:59;;;;;;;7.80;2.40;;;16.90;36.30;;;;;;5021147;28;20460;-84
2022/07/29 01:42:31;;;;;;;7.63;2.40;;;16.80;36.80;;;;;;5021040;28;20494;-86
2022/07/29 01:45:06;;;;;;;7.00;2.87;;;16.50;38.30;;;;;;5020486;28;20951;-85
2022/07/29 01:47:39;;;;;;;6.73;2.60;;;16.50;39.30;;;;;;5020843;28;20460;-84
2022/07/29 01:50:11;;;;;;;7.20;2.77;;;16.40;40.00;;;;;;5020979;28;20542;-84
2022/07/29 01:52:43;;;;;;;11.90;3.30;;;16.40;40.80;;;;;;5020630;28;20485;-83
2022/07/29 01:55:14;;;;;;;6.00;2.27;;;16.30;40.90;;;;;;5020815;28;20485;-83
2022/07/29 01:57:45;;;;;;;11.27;2.43;;;16.40;41.00;;;;;;5020922;28;20467;-84
2022/07/29 02:00:15;;;;;;;7.00;2.40;;;16.40;41.10;;;;;;5020704;28;20455;-83
2022/07/29 02:02:44;;;;;;;10.70;2.43;;;16.30;40.90;;;;;;5021236;28;20494;-84
2022/07/29 02:05:14;;;;;;;12.23;3.30;;;16.50;42.20;;;;;;5020255;28;20455;-86
2022/07/29 02:07:42;;;;;;;7.80;2.10;;;16.30;43.20;;;;;;5020902;28;20458;-86
2022/07/29 02:10:11;;;;;;;6.27;3.03;;;16.30;42.70;;;;;;5020460;28;20467;-84
2022/07/29 02:12:39;;;;;;;10.27;2.93;;;16.40;42.90;;;;;;5019625;28;20495;-84
2022/07/29 02:15:08;;;;;;;6.90;2.53;;;16.40;45.40;;;;;;5019597;28;20464;-83
2022/07/29 02:17:41;;;;;;;5.87;1.90;;;16.40;42.40;;;;;;5019734;28;20896;-83
2022/07/29 02:20:10;;;;;;;6.20;2.30;;;16.50;41.10;;;;;;5019642;28;20455;-84
2022/07/29 02:22:39;;;;;;;6.00;2.20;;;16.70;38.70;;;;;;5019794;28;20476;-84
2022/07/29 02:25:08;;;;;;;9.13;2.10;;;16.80;36.40;;;;;;5019676;28;20924;-83
2022/07/29 02:27:38;;;;;;;9.60;2.93;;;16.90;34.30;;;;;;5019673;28;20951;-84
2022/07/29 02:30:06;;;;;;;9.40;2.43;;;16.80;33.60;;;;;;5019614;28;20498;-84
2022/07/29 02:32:37;;;;;;;6.13;1.73;;;17.00;35.20;;;;;;5018213;28;20490;-84
2022/07/29 02:35:05;;;;;;;14.53;2.77;;;16.90;33.40;;;;;;5018371;28;20455;-85
2022/07/29 02:37:33;;;;;;;7.27;2.33;;;16.90;33.10;;;;;;5018882;28;20478;-84
2022/07/29 02:40:01;;;;;;;6.83;2.20;;;17.00;33.70;;;;;;5019357;28;20452;-84
2022/07/29 02:42:29;;;;;;;5.57;1.90;;;16.80;36.70;;;;;;5019750;28;20475;-84
2022/07/29 02:44:56;;;;;;;27.73;3.00;;;16.70;35.10;;;;;;5019350;28;20459;-83
2022/07/29 02:47:34;;;;;;;10.40;2.37;;;16.80;37.60;;;;;;5019545;28;20968;-86
2022/07/29 02:50:08;;;;;;;7.20;2.20;;;16.60;40.40;;;;;;5019262;28;20464;-84
2022/07/29 02:52:41;;;;;;;6.90;2.40;;;16.50;41.10;;;;;;5019413;28;20925;-84
2022/07/29 02:55:15;;;;;;;10.47;2.53;;;16.40;41.00;;;;;;5018391;28;20485;-83
2022/07/29 02:57:45;;;;;;;10.03;2.83;;;16.50;43.60;;;;;;5018432;28;20456;-84
2022/07/29 03:00:13;;;;;;;10.07;2.87;;;16.40;42.40;;;;;;5017883;28;20449;-84
2022/07/29 03:02:43;;;;;;;12.10;2.77;;;16.40;42.30;;;;;;5018598;28;20479;-84
2022/07/29 03:05:18;;;;;;;7.57;2.23;;;16.50;39.50;;;;;;5018226;28;20459;-82
2022/07/29 03:07:47;;;;;;;8.47;1.97;;;16.60;35.70;;;;;;5018864;28;20972;-84
2022/07/29 03:10:14;;;;;;;9.57;2.50;;;16.70;38.20;;;;;;5017951;28;20955;-84
2022/07/29 03:12:42;;;;;;;5.13;1.53;;;16.80;36.80;;;;;;5017839;28;20485;-84
2022/07/29 03:15:10;;;;;;;5.43;1.77;;;16.70;38.80;;;;;;5017591;28;20470;-83
2022/07/29 03:17:38;;;;;;;6.00;2.10;;;16.60;40.10;;;;;;5018126;28;20966;-83
2022/07/29 03:20:07;;;;;;;4.00;1.20;;;16.60;38.10;;;;;;5017778;28;20464;-83
2022/07/29 03:22:43;;;;;;;6.27;2.73;;;16.60;37.80;;;;;;5018039;28;20489;-83
2022/07/29 03:25:10;;;;;;;5.73;2.10;;;16.50;38.50;;;;;;5017893;28;20453;-84
2022/07/29 03:27:39;;;;;;;10.80;1.80;;;16.50;38.90;;;;;;5018347;28;20462;-86
2022/07/29 03:30:07;;;;;;;4.40;1.70;;;16.50;38.50;;;;;;5015143;28;20831;-84
2022/07/29 03:32:34;;;;;;;8.43;2.03;;;16.50;38.30;;;;;;5017162;28;20473;-84
2022/07/29 03:35:01;;;;;;;4.47;1.57;;;16.50;38.20;;;;;;5014829;28;20467;-85
2022/07/29 03:37:30;;;;;;;8.17;2.50;;;16.40;40.90;;;;;;5016968;28;20464;-85
2022/07/29 03:39:58;;;;;;;9.23;2.80;;;16.20;40.80;;;;;;5017366;28;20455;-85
2022/07/29 03:42:29;;;;;;;5.83;2.40;;;16.20;43.80;;;;;;5015609;28;20472;-83
2022/07/29 03:44:57;;;;;;;6.37;2.20;;;16.10;46.00;;;;;;5016912;28;20477;-84
2022/07/29 03:47:28;;;;;;;5.83;2.60;;;15.90;48.10;;;;;;5017330;28;20461;-85
2022/07/29 03:50:00;;;;;;;5.00;1.70;;;15.70;49.20;;;;;;5017313;28;20481;-85
2022/07/29 03:52:27;;;;;;;8.33;2.50;;;15.80;48.60;;;;;;5016574;28;20909;-85
2022/07/29 03:54:53;;;;;;;7.63;2.33;;;15.70;49.20;;;;;;5017780;28;20458;-85
2022/07/29 03:57:26;;;;;;;6.10;2.37;;;15.60;49.10;;;;;;5018075;28;20462;-84
2022/07/29 03:59:53;;;;;;;7.93;2.80;;;15.70;51.40;;;;;;5016241;28;20461;-83
2022/07/29 04:02:20;;;;;;;4.63;1.90;;;15.60;53.10;;;;;;5017711;28;20481;-84
2022/07/29 04:04:48;;;;;;;5.60;2.70;;;15.60;53.60;;;;;;5016705;28;20469;-84
2022/07/29 04:07:16;;;;;;;6.20;2.33;;;15.50;52.60;;;;;;5018411;28;20465;-84
2022/07/29 04:09:42;;;;;;;9.40;2.00;;;15.50;52.80;;;;;;5016956;28;20464;-87
2022/07/29 04:12:10;;;;;;;6.27;2.70;;;15.50;53.30;;;;;;5016118;28;21020;-84
2022/07/29 04:14:38;;;;;;;11.10;2.67;;;15.60;54.50;;;;;;5016795;28;20482;-83
2022/07/29 04:17:06;;;;;;;8.00;3.33;;;15.50;55.50;;;;;;5017654;28;20453;-84
2022/07/29 04:19:33;;;;;;;12.03;3.43;;;15.40;58.60;;;;;;5017319;28;20460;-84
2022/07/29 04:22:01;;;;;;;6.03;2.60;;;15.20;61.20;;;;;;5017983;28;20829;-84
2022/07/29 04:24:28;;;;;;;8.93;3.40;;;15.20;63.60;;;;;;5017415;28;20449;-85
2022/07/29 04:26:55;;;;;;;7.13;3.30;;;15.20;65.10;;;;;;5018223;28;20461;-84
2022/07/29 04:29:22;;;;;;;7.30;3.50;;;15.10;67.30;;;;;;5017283;28;20457;-84
2022/07/29 04:31:50;;;;;;;6.73;3.50;;;15.10;68.80;;;;;;5016783;28;20468;-84
2022/07/29 04:34:17;;;;;;;8.90;4.37;;;15.10;69.50;;;;;;5017079;28;20473;-84
2022/07/29 04:36:44;;;;;;;5.63;3.23;;;15.10;69.60;;;;;;5016764;28;20528;-84
2022/07/29 04:39:10;;;;;;;7.13;2.63;;;15.10;69.80;;;;;;5017187;28;20871;-84
2022/07/29 04:41:37;;;;;;;12.20;3.77;;;15.20;69.30;;;;;;5017420;28;20453;-84
2022/07/29 04:44:05;;;;;;;6.27;3.63;;;15.30;69.90;;;;;;5016625;28;20477;-84
2022/07/29 04:46:32;;;;;;;7.30;3.20;;;15.10;71.50;;;;;;5016926;28;20486;-84
2022/07/29 04:49:00;;;;;;;16.33;4.60;;;15.20;71.70;;;;;;5017691;28;20461;-83
2022/07/29 04:51:27;;;;;;;8.97;3.33;;;15.20;71.70;;;;;;5017522;28;20449;-84
2022/07/29 04:53:53;;;;;;;7.00;3.20;;;15.30;70.80;;;;;;5017019;28;20484;-86
2022/07/29 04:56:20;;;;;;;7.67;3.23;;;15.40;68.90;;;;;;5017927;28;20461;-84
2022/07/29 04:58:47;;;;;;;11.37;5.40;;;15.50;69.20;;;;;;5017337;28;20457;-83
2022/07/29 05:01:14;;;;;;;5.37;2.97;;;15.50;68.50;;;;;;5018155;28;20462;-84
2022/07/29 05:03:41;;;;;;;5.63;3.57;;;15.60;68.00;;;;;;5017205;28;20477;-85
2022/07/29 05:06:09;;;;;;;8.30;3.37;;;15.60;67.00;;;;;;5017476;28;20545;-84
2022/07/29 05:08:36;;;;;;;7.60;3.37;;;15.80;66.30;;;;;;5017971;28;20457;-85
2022/07/29 05:11:03;;;;;;;6.77;3.43;;;15.80;66.30;;;;;;5017925;28;20456;-86
2022/07/29 05:13:30;;;;;;;14.30;4.73;;;15.90;65.00;;;;;;5017768;28;20485;-85
2022/07/29 05:15:58;;;;;;;9.77;3.67;;;16.00;65.00;;;;;;5017333;28;20457;-84
2022/07/29 05:18:24;;;;;;;6.53;3.40;;;16.00;64.80;;;;;;5017480;28;20483;-84
2022/07/29 05:20:51;;;;;;;11.23;3.93;;;16.20;64.90;;;;;;5021402;28;20461;-85
2022/07/29 05:23:19;;;;;;;7.13;3.70;;;16.20;64.50;;;;;;5021321;28;20497;-84
2022/07/29 05:25:46;;;;;;;11.27;3.83;;;16.20;64.00;;;;;;5021062;28;20453;-84
2022/07/29 05:28:13;;;;;;;11.50;3.63;;;16.40;64.00;;;;;;5020813;28;20518;-84
2022/07/29 05:30:40;;;;;;;10.67;4.37;;;16.50;65.00;;;;;;5021130;28;20463;-85
2022/07/29 05:33:07;;;;;;;12.03;3.90;;;16.50;64.00;;;;;;5020869;28;20484;-85
2022/07/29 05:35:34;;;;;;;9.90;3.87;;;16.60;63.40;;;;;;5021550;28;20589;-84
2022/07/29 05:38:01;;;;;;;10.27;4.90;;;16.70;64.20;;;;;;5021391;28;20463;-83
2022/07/29 05:40:29;;;;;;;9.10;4.00;;;16.70;62.70;;;;;;5020725;28;20453;-83
2022/07/29 05:42:56;;;;;;;10.20;3.87;;;16.90;62.70;;;;;;5021178;28;20563;-83
2022/07/29 05:45:24;;;;;;;11.10;4.27;;;17.00;61.50;;;;;;5020818;28;20448;-84
2022/07/29 05:47:50;;;;;;;9.57;4.23;;;17.10;59.80;;;;;;5021384;28;20464;-86
2022/07/29 05:50:17;;;;;;;10.63;3.70;;;17.30;59.40;;;;;;5021495;28;20449;-85
2022/07/29 05:52:44;;;;;;;7.70;4.00;;;17.40;59.40;;;;;;5021646;28;20476;-84
2022/07/29 05:55:11;;;;;;;6.77;3.80;;;17.50;59.50;;;;;;5020890;28;20666;-84
2022/07/29 05:57:39;;;;;;;7.43;4.10;;;17.60;58.40;;;;;;5021116;28;20460;-85
2022/07/29 06:00:07;;;;;;;9.37;3.73;;;17.70;58.40;;;;;;5022128;28;20494;-86
2022/07/29 06:02:34;;;;;;;9.67;4.10;;;17.80;56.60;;;;;;5020591;28;20469;-84
2022/07/29 06:05:00;;;;;;;7.60;4.40;;;17.90;58.00;;;;;;5021705;28;20456;-84
2022/07/29 06:07:27;;;;;;;10.27;4.27;;;17.80;56.50;;;;;;5021434;28;20461;-84
2022/07/29 06:09:54;;;;;;;7.03;3.73;;;17.90;55.00;;;;;;5020763;28;20454;-84
2022/07/29 06:12:21;;;;;;;7.23;4.20;;;17.80;54.80;;;;;;5020343;28;20470;-85
2022/07/29 06:14:49;;;;;;;7.73;3.93;;;17.80;54.70;;;;;;5019574;28;20990;-84
2022/07/29 06:17:17;;;;;;;9.73;4.20;;;17.70;53.70;;;;;;5021035;28;20457;-84
2022/07/29 06:19:56;;;;;;;10.23;4.13;;;17.80;53.80;;;;;;5018041;28;20457;-89
2022/07/29 06:22:22;;;;;;;7.70;3.30;;;17.70;53.70;;;;;;5015643;28;20868;-83
2022/07/29 06:24:49;;;;;;;9.80;4.33;;;17.70;53.70;;;;;;5015621;28;20460;-84
2022/07/29 06:27:16;;;;;;;9.30;4.10;;;17.60;54.20;;;;;;5016476;28;20454;-82
2022/07/29 06:29:43;;;;;;;7.83;3.97;;;17.50;55.10;;;;;;5016670;28;20449;-83
2022/07/29 06:32:11;;;;;;;9.60;4.50;;;17.50;56.10;;;;;;5014956;28;20519;-83
2022/07/29 06:34:37;;;;;;;9.07;4.10;;;17.50;56.30;;;;;;5017067;28;21035;-84
2022/07/29 06:37:07;;;;;;;8.67;3.67;;;17.40;56.50;;;;;;5018174;28;20469;-80
2022/07/29 06:39:35;;;;;;;12.00;4.70;;;17.50;57.60;;;;;;5017315;28;20507;-79
2022/07/29 06:42:02;;;;;;;10.97;4.53;;;17.30;59.40;;;;;;5017862;28;20453;-80
2022/07/29 06:44:29;;;;;;;11.43;4.57;;;17.20;62.60;;;;;;5016271;28;20456;-79
2022/07/29 06:46:56;;;;;;;9.17;4.70;;;17.10;64.90;;;;;;5017868;28;21003;-80
2022/07/29 06:49:25;;;;;;;8.90;4.73;;;16.90;67.30;;;;;;5015748;28;20468;-80
2022/07/29 06:51:52;;;;;;;10.07;5.10;;;16.70;72.90;;;;;;5020083;28;20701;-83
2022/07/29 06:54:19;;;;;;;18.43;8.27;;;16.60;78.00;;;;;;5019568;28;20502;-82
2022/07/29 06:56:46;;;;;;;24.13;22.17;;;16.40;84.60;;;;;;5020337;28;20459;-82
2022/07/29 06:59:14;;;;;;;62.17;58.77;;;16.40;90.20;;;;;;5021010;28;20803;-83
2022/07/29 07:01:42;;;;;;;68.50;64.77;;;16.40;90.90;;;;;;5020548;28;20464;-83
2022/07/29 07:04:10;;;;;;;27.83;25.83;;;16.40;89.70;;;;;;5020670;28;20840;-84
2022/07/29 07:06:39;;;;;;;207.90;200.90;;;16.30;87.40;;;;;;5020234;28;20460;-83
2022/07/29 07:09:06;;;;;;;366.73;354.00;;;16.20;93.00;;;;;;5020393;28;20422;-84
2022/07/29 07:11:32;;;;;;;542.37;519.90;;;16.20;94.50;;;;;;5020017;28;20455;-83
2022/07/29 07:13:59;;;;;;;355.97;343.63;;;16.20;95.20;;;;;;5007544;28;20484;-82
2022/07/29 07:16:26;;;;;;;438.53;422.13;;;16.20;93.70;;;;;;4999957;28;20495;-83
2022/07/29 07:18:53;;;;;;;474.00;456.03;;;16.20;95.00;;;;;;5000642;28;20466;-84
2022/07/29 07:21:19;;;;;;;275.77;266.83;;;16.20;94.80;;;;;;5000090;28;20451;-82
2022/07/29 07:24:35;;;;;;;;;;;;;;;;;;;;;
2022/07/29 07:27:03;;;;;;;75.37;72.17;;;16.20;93.20;;;;;;4993504;28;20447;-83
2022/07/29 07:29:30;;;;;;;27.43;25.63;;;16.10;91.90;;;;;;5000707;28;20460;-83
2022/07/29 07:35:42;;;;;;;190.13;183.80;;;16.00;94.30;;;;;;4992625;28;20475;-83
2022/07/29 07:41:17;;;;;;;475.70;457.90;;;16.20;94.60;;;;;;4858244;29;20504;-82
2022/07/29 07:43:51;;;;;;;409.30;395.07;;;16.30;95.30;;;;;;4961357;28;20487;-83
2022/07/29 07:46:18;;;;;;;467.07;449.60;;;16.60;95.20;;;;;;4996493;28;20440;-83
2022/07/29 07:48:45;;;;;;;555.90;533.00;;;16.50;96.70;;;;;;4996716;28;20839;-82
2022/07/29 07:51:12;;;;;;;549.90;527.00;;;16.60;96.20;;;;;;4996869;28;20460;-82
2022/07/29 07:56:37;;;;;;;382.97;369.23;;;17.00;96.00;;;;;;4984380;28;20461;-80
2022/07/29 08:25:52;;;;;;;29.57;27.63;;;17.70;85.00;;;;;;4958532;29;20460;-84
2022/07/29 08:32:06;;;;;;;53.13;50.50;;;17.90;84.20;;;;;;4895693;29;20529;-84
2022/07/29 08:38:07;;;;;;;11.30;9.03;;;18.10;83.30;;;;;;5016826;28;20493;-82
2022/07/29 08:40:44;;;;;;;12.43;6.80;;;18.40;75.10;;;;;;5016939;28;20475;-83
2022/07/29 08:43:11;;;;;;;9.43;6.60;;;18.60;71.70;;;;;;5017334;28;20481;-84
2022/07/29 08:45:45;;;;;;;8.60;5.70;;;18.70;71.80;;;;;;5017382;28;21202;-84
2022/07/29 08:48:31;;;;;;;10.80;5.97;;;19.00;68.70;;;;;;5015288;28;20786;-83
2022/07/29 08:51:41;;;;;;;9.50;5.10;;;19.20;67.00;;;;;;5015914;28;20517;-83
2022/07/29 08:54:49;;;;;;;9.70;6.27;;;19.50;67.80;;;;;;5016377;28;20477;-83
2022/07/29 08:57:49;;;;;;;13.00;5.47;;;19.80;66.70;;;;;;4997658;28;20544;-81
2022/07/29 09:00:25;;;;;;;8.50;5.20;;;19.60;64.20;;;;;;5015179;28;20452;-80
2022/07/29 09:02:57;;;;;;;13.00;5.00;;;19.60;61.90;;;;;;5018238;28;20847;-80
2022/07/29 09:05:27;;;;;;;10.83;5.37;;;19.70;59.00;;;;;;5017909;28;20922;-81
2022/07/29 09:07:54;;;;;;;8.57;4.90;;;19.50;62.40;;;;;;5019438;28;20459;-81
2022/07/29 09:10:39;;;;;;;10.47;5.97;;;19.30;59.20;;;;;;5019194;28;20848;-81
2022/07/29 09:13:06;;;;;;;10.53;6.33;;;19.20;63.10;;;;;;5018905;28;20462;-81
2022/07/29 09:18:56;;;;;;;10.57;5.30;;;19.30;68.10;;;;;;5015113;28;20452;-83
2022/07/29 09:22:11;;;;;;;11.27;5.37;;;19.50;65.90;;;;;;5016718;28;20468;-82
2022/07/29 09:24:41;;;;;;;10.97;5.13;;;19.40;65.00;;;;;;5017155;28;20456;-82
2022/07/29 09:27:11;;;;;;;9.87;6.60;;;19.40;62.80;;;;;;5018282;28;20454;-81
2022/07/29 09:29:38;;;;;;;11.00;6.33;;;19.50;66.70;;;;;;5019480;28;20460;-81
2022/07/29 09:32:10;;;;;;;9.10;5.80;;;19.50;62.20;;;;;;5017434;28;20532;-81
2022/07/29 09:34:37;;;;;;;13.07;6.90;;;19.50;63.40;;;;;;5017372;28;20907;-82
2022/07/29 09:37:05;;;;;;;17.53;6.77;;;19.70;65.30;;;;;;5017651;28;20457;-83
2022/07/29 09:39:34;;;;;;;14.60;7.17;;;19.70;67.40;;;;;;5019970;28;20946;-82
2022/07/29 09:42:03;;;;;;;12.30;7.27;;;19.90;63.20;;;;;;5019531;28;20462;-82
2022/07/29 09:44:43;;;;;;;11.87;6.67;;;19.90;61.90;;;;;;5020417;28;20478;-83
2022/07/29 09:47:10;;;;;;;9.53;7.23;;;19.80;61.60;;;;;;5020566;28;20462;-84
2022/07/29 09:49:51;;;;;;;15.83;7.90;;;19.80;58.40;;;;;;5020538;28;20463;-82
2022/07/29 09:52:19;;;;;;;11.40;6.50;;;19.80;59.20;;;;;;5020071;28;21003;-82
2022/07/29 09:54:46;;;;;;;11.43;6.17;;;19.70;57.50;;;;;;5018392;28;20488;-82
2022/07/29 09:57:24;;;;;;;11.60;6.87;;;19.80;54.40;;;;;;5019328;28;20452;-82
2022/07/29 09:59:57;;;;;;;11.30;5.63;;;19.90;54.90;;;;;;5018775;28;20471;-86
2022/07/29 10:02:29;;;;;;;11.20;5.77;;;19.90;52.40;;;;;;5020957;28;20466;-82
2022/07/29 10:04:56;;;;;;;7.03;4.93;;;20.60;55.10;;;;;;5017284;28;20452;-82
2022/07/29 10:07:25;;;;;;;11.10;4.33;;;20.80;50.80;;;;;;5016729;28;20547;-83
2022/07/29 10:09:55;;;;;;;11.17;4.57;;;21.00;48.30;;;;;;5016548;28;20455;-82
2022/07/29 10:12:22;;;;;;;13.60;5.07;;;21.20;50.00;;;;;;5018113;28;20479;-83
2022/07/29 10:14:50;;;;;;;12.00;4.70;;;21.50;47.60;;;;;;5018751;28;20554;-82
2022/07/29 10:17:18;;;;;;;12.17;4.53;;;21.40;47.80;;;;;;5016532;28;20472;-83
2022/07/29 10:19:45;;;;;;;9.10;4.23;;;21.30;45.60;;;;;;5018357;28;20841;-83
2022/07/29 10:22:12;;;;;;;14.43;4.67;;;21.30;43.20;;;;;;5016607;28;20498;-84
2022/07/29 10:24:40;;;;;;;9.97;4.57;;;21.20;44.20;;;;;;5017922;28;20961;-84
2022/07/29 10:27:08;;;;;;;10.10;4.10;;;21.10;46.90;;;;;;5017630;28;20460;-84
2022/07/29 10:29:35;;;;;;;7.70;3.90;;;20.80;44.10;;;;;;5017097;28;20465;-83
2022/07/29 10:36:01;;;;;;;6.07;3.03;;;21.20;43.10;;;;;;4999012;28;20477;-83
2022/07/29 10:43:02;;;;;;;;;;;;;;;;;;;;;
2022/07/29 10:54:47;;;;;;;11.40;3.60;;;22.40;32.90;;;;;;5010257;28;20549;-83
2022/07/29 10:57:21;;;;;;;11.10;3.30;;;22.80;30.30;;;;;;5017953;28;20456;-83
2022/07/29 10:59:49;;;;;;;12.00;3.87;;;23.40;29.50;;;;;;5017962;28;20460;-85
2022/07/29 11:02:44;;;;;;;8.23;3.27;;;23.70;26.70;;;;;;5018043;28;20554;-83
2022/07/29 11:05:12;;;;;;;8.53;3.30;;;24.30;22.20;;;;;;5018086;28;20484;-84
2022/07/29 11:08:00;;;;;;;10.13;3.43;;;24.30;21.20;;;;;;5018402;28;20449;-83
2022/07/29 11:10:27;;;;;;;8.27;2.83;;;24.50;21.00;;;;;;5018419;28;20461;-83
2022/07/29 11:12:55;;;;;;;7.97;3.43;;;24.50;20.50;;;;;;5017916;28;20469;-83
2022/07/29 11:15:23;;;;;;;9.93;3.67;;;24.90;19.20;;;;;;5017385;28;20456;-84
2022/07/29 11:18:10;;;;;;;8.23;2.90;;;25.10;20.60;;;;;;5017437;28;20839;-83
2022/07/29 11:20:41;;;;;;;10.67;2.77;;;25.00;14.70;;;;;;5019970;28;20457;-86
2022/07/29 11:23:24;;;;;;;8.77;3.03;;;25.40;16.80;;;;;;5017117;28;20477;-84
2022/07/29 11:26:23;;;;;;;8.10;3.00;;;25.70;15.40;;;;;;5020726;28;20553;-84
2022/07/29 11:28:58;;;;;;;7.50;2.50;;;24.90;15.70;;;;;;5018311;28;20459;-83
2022/07/29 11:31:37;;;;;;;9.43;2.50;;;25.40;11.60;;;;;;5018558;28;20460;-84
2022/07/29 11:34:21;;;;;;;7.37;2.93;;;26.30;10.90;;;;;;5018246;28;20477;-84
2022/07/29 11:37:21;;;;;;;7.50;2.80;;;25.80;13.60;;;;;;5019081;28;20456;-86
2022/07/29 11:40:10;;;;;;;8.77;2.33;;;24.60;13.40;;;;;;4939960;29;20492;-84
2022/07/29 11:42:46;;;;;;;8.30;2.63;;;24.30;10.70;;;;;;4938057;29;20482;-83
2022/07/29 11:45:19;;;;;;;7.20;3.00;;;25.30;11.10;;;;;;4991131;28;20464;-84
2022/07/29 11:47:53;;;;;;;6.83;2.60;;;25.60;12.50;;;;;;5018690;28;20461;-84
2022/07/29 11:50:30;;;;;;;8.00;2.90;;;25.90;13.30;;;;;;5017397;28;20453;-84
2022/07/29 11:52:58;;;;;;;9.83;2.80;;;26.50;7.60;;;;;;5019710;28;20477;-84
2022/07/29 11:55:25;;;;;;;8.20;3.00;;;26.50;8.90;;;;;;5019800;28;20457;-86
2022/07/29 11:57:54;;;;;;;8.13;2.83;;;26.50;8.90;;;;;;5020065;28;20453;-84
2022/07/29 12:00:28;;;;;;;8.47;2.73;;;26.90;7.60;;;;;;5018465;28;20468;-86
2022/07/29 12:02:56;;;;;;;6.57;3.50;;;26.30;7.30;;;;;;5019002;28;20483;-83
2022/07/29 12:05:35;;;;;;;8.23;3.07;;;25.30;11.30;;;;;;5018761;28;20481;-84
2022/07/29 12:08:07;;;;;;;8.40;3.83;;;24.70;15.60;;;;;;5018621;28;20827;-84
2022/07/29 12:10:34;;;;;;;13.80;4.77;;;25.10;18.80;;;;;;5019288;28;20460;-84
2022/07/29 12:13:01;;;;;;;13.37;5.10;;;25.00;19.50;;;;;;5018473;28;20465;-86
2022/07/29 12:15:29;;;;;;;10.23;5.40;;;24.60;18.00;;;;;;5018555;28;20969;-84
2022/07/29 12:17:56;;;;;;;12.20;5.20;;;24.30;20.50;;;;;;5017821;28;20460;-84
2022/07/29 12:20:25;;;;;;;10.43;6.03;;;24.10;19.50;;;;;;5017445;28;20457;-84
2022/07/29 12:22:53;;;;;;;14.27;5.70;;;24.50;20.80;;;;;;5018553;28;20465;-86
2022/07/29 12:25:22;;;;;;;13.63;4.97;;;25.30;18.70;;;;;;5017597;28;20459;-86
2022/07/29 12:27:58;;;;;;;16.17;5.83;;;25.40;16.00;;;;;;5019275;28;20484;-84
2022/07/29 12:30:34;;;;;;;9.67;5.40;;;25.70;14.60;;;;;;5022737;28;20456;-83
2022/07/29 12:33:10;;;;;;;16.70;4.70;;;26.10;13.50;;;;;;5024426;28;20488;-84
2022/07/29 12:35:37;;;;;;;20.67;5.60;;;26.00;10.50;;;;;;5022571;28;20448;-83
2022/07/29 12:38:04;;;;;;;14.10;5.63;;;26.50;11.90;;;;;;5021892;28;20460;-84
2022/07/29 12:40:31;;;;;;;10.17;4.77;;;26.60;12.70;;;;;;5022152;28;20468;-84
2022/07/29 12:43:12;;;;;;;9.63;5.00;;;26.80;11.30;;;;;;5023168;28;20480;-83
2022/07/29 12:45:40;;;;;;;9.70;4.77;;;26.70;10.30;;;;;;5023106;28;20476;-86
2022/07/29 12:48:09;;;;;;;9.53;4.70;;;26.60;8.40;;;;;;5021804;28;20553;-86
2022/07/29 12:50:36;;;;;;;6.90;3.97;;;26.90;9.20;;;;;;5021320;28;20941;-84
2022/07/29 12:53:11;;;;;;;7.40;3.87;;;27.60;5.70;;;;;;5023196;28;20472;-87
2022/07/29 12:55:43;;;;;;;11.60;5.07;;;27.40;5.40;;;;;;5024376;28;20452;-84
2022/07/29 12:58:10;;;;;;;11.70;5.40;;;27.40;9.50;;;;;;5023049;28;20456;-84
2022/07/29 13:00:37;;;;;;;7.87;4.27;;;27.00;9.20;;;;;;5023821;28;20929;-84
2022/07/29 13:03:04;;;;;;;9.70;5.20;;;27.00;8.70;;;;;;5022729;28;20476;-85
2022/07/29 13:05:44;;;;;;;12.90;4.43;;;27.00;8.20;;;;;;5020965;28;20920;-82
2022/07/29 13:08:12;;;;;;;9.67;4.33;;;27.30;8.10;;;;;;5024692;28;20448;-82
2022/07/29 13:10:40;;;;;;;9.80;4.87;;;27.10;9.30;;;;;;5020408;28;20427;-81
2022/07/29 13:13:10;;;;;;;9.40;4.37;;;27.50;6.80;;;;;;5021042;28;20472;-82
2022/07/29 13:15:37;;;;;;;9.83;4.10;;;27.60;4.50;;;;;;5023033;28;20517;-85
2022/07/29 13:18:04;;;;;;;8.13;4.97;;;27.20;6.60;;;;;;5022419;28;20510;-82
2022/07/29 13:20:31;;;;;;;10.90;4.20;;;27.50;6.40;;;;;;5022179;28;20458;-83
2022/07/29 13:23:00;;;;;;;10.77;4.57;;;27.70;5.40;;;;;;5023092;28;20487;-82
2022/07/29 13:25:28;;;;;;;11.97;5.10;;;26.50;5.60;;;;;;5022148;28;20457;-83
2022/07/29 13:27:56;;;;;;;12.27;4.97;;;26.90;6.60;;;;;;5021916;28;20460;-82
2022/07/29 13:30:23;;;;;;;9.27;4.60;;;27.00;5.50;;;;;;5021982;28;20453;-83
2022/07/29 13:32:51;;;;;;;7.77;3.40;;;27.50;5.50;;;;;;5023812;28;20472;-83
2022/07/29 13:35:18;;;;;;;9.57;4.30;;;26.80;4.20;;;;;;5023053;28;20460;-82
2022/07/29 13:37:45;;;;;;;12.93;4.10;;;27.00;5.30;;;;;;5021523;28;20451;-82
2022/07/29 13:40:14;;;;;;;6.87;3.57;;;27.30;4.20;;;;;;5021779;28;20456;-83
2022/07/29 13:42:41;;;;;;;7.53;3.63;;;27.40;3.40;;;;;;5022896;28;20523;-81
2022/07/29 13:45:14;;;;;;;12.90;4.43;;;27.20;1.50;;;;;;5022352;28;20464;-83
2022/07/29 13:50:57;;;;;;;9.00;4.10;;;27.20;1.40;;;;;;5021621;28;21036;-82
2022/07/29 13:53:24;;;;;;;6.53;3.60;;;26.90;2.20;;;;;;5027144;28;20512;-81
2022/07/29 13:55:52;;;;;;;8.63;3.30;;;26.80;4.20;;;;;;5028453;28;20476;-81
2022/07/29 13:58:19;;;;;;;8.57;3.23;;;26.70;4.80;;;;;;5028535;28;20468;-81
2022/07/29 14:00:47;;;;;;;10.67;4.20;;;27.30;5.20;;;;;;5029457;28;20453;-82
2022/07/29 14:03:13;;;;;;;9.73;4.07;;;27.20;1.40;;;;;;5028592;28;21172;-81
2022/07/29 14:05:40;;;;;;;9.73;3.93;;;27.70;3.00;;;;;;5029803;28;20460;-81
2022/07/29 14:08:07;;;;;;;7.20;3.40;;;27.60;4.40;;;;;;5030493;28;20525;-81
2022/07/29 14:10:37;;;;;;;8.43;3.83;;;27.20;1.50;;;;;;5028843;28;20459;-81